createdAt,value
2023-03-17T00:01:56.080Z,68.70
2023-03-17T00:04:24.489Z,68.72
2023-03-17T00:06:52.949Z,68.60
2023-03-17T00:09:21.148Z,68.45
2023-03-17T00:11:49.145Z,68.41
2023-03-17T00:14:16.887Z,68.68
2023-03-17T00:16:50.147Z,68.41
2023-03-17T00:19:21.749Z,68.48
2023-03-17T00:21:49.322Z,68.17
2023-03-17T00:24:16.163Z,68.00
2023-03-17T00:26:43.677Z,68.38
2023-03-17T00:29:10.946Z,68.26
2023-03-17T00:31:39.288Z,68.33
2023-03-17T00:34:08.077Z,68.32
2023-03-17T00:36:35.922Z,68.18
2023-03-17T00:39:06.709Z,68.25
2023-03-17T00:41:33.671Z,68.18
2023-03-17T00:44:00.320Z,68.35
2023-03-17T00:46:36.106Z,68.23
2023-03-17T00:49:10.730Z,68.22
2023-03-17T00:51:40.182Z,68.22
2023-03-17T00:54:07.168Z,68.14
2023-03-17T00:56:34.040Z,68.38
2023-03-17T00:59:00.864Z,68.47
2023-03-17T01:01:28.232Z,68.40
2023-03-17T01:03:54.904Z,68.53
2023-03-17T01:06:21.638Z,68.56
2023-03-17T01:08:48.809Z,68.78
2023-03-17T01:11:18.974Z,68.71
2023-03-17T01:13:47.744Z,68.61
2023-03-17T01:16:15.689Z,68.52
2023-03-17T01:18:42.571Z,68.77
2023-03-17T01:21:09.627Z,68.83
2023-03-17T01:23:36.730Z,68.88
2023-03-17T01:26:04.316Z,68.93
2023-03-17T01:28:31.100Z,68.85
2023-03-17T01:30:57.973Z,68.91
2023-03-17T01:33:25.687Z,69.02
2023-03-17T01:35:52.687Z,68.92
2023-03-17T01:38:19.577Z,68.86
2023-03-17T01:40:49.818Z,68.96
2023-03-17T01:43:27.733Z,69.26
2023-03-17T01:46:22.521Z,69.47
2023-03-17T01:49:05.809Z,69.09
2023-03-17T01:52:01.112Z,69.32
2023-03-17T01:54:45.224Z,69.71
2023-03-17T01:57:11.939Z,69.63
2023-03-17T01:59:44.417Z,69.97
2023-03-17T02:02:16.163Z,70.09
2023-03-17T02:04:42.877Z,70.41
2023-03-17T02:07:10.311Z,70.46
2023-03-17T02:09:41.428Z,70.27
2023-03-17T02:12:09.316Z,70.29
2023-03-17T02:14:36.607Z,70.29
2023-03-17T02:17:03.344Z,70.46
2023-03-17T02:19:30.979Z,70.44
2023-03-17T02:21:58.706Z,70.43
2023-03-17T02:24:34.381Z,70.22
2023-03-17T02:27:18.936Z,70.17
2023-03-17T02:29:46.559Z,70.11
2023-03-17T02:32:18.666Z,70.29
2023-03-17T02:34:49.598Z,70.33
2023-03-17T02:37:18.291Z,70.02
2023-03-17T02:39:45.529Z,69.94
2023-03-17T02:42:13.355Z,69.79
2023-03-17T02:44:40.585Z,69.87
2023-03-17T02:47:08.569Z,70.10
2023-03-17T02:49:37.397Z,70.08
2023-03-17T02:52:04.754Z,70.10
2023-03-17T02:54:31.811Z,70.04
2023-03-17T02:56:59.363Z,69.92
2023-03-17T02:59:26.440Z,70.32
2023-03-17T03:01:53.446Z,69.91
2023-03-17T03:04:20.361Z,70.53
2023-03-17T03:06:47.784Z,70.33
2023-03-17T03:09:15.223Z,70.58
2023-03-17T03:11:42.719Z,70.60
2023-03-17T03:14:10.140Z,70.64
2023-03-17T03:16:37.809Z,70.86
2023-03-17T03:19:04.842Z,71.11
2023-03-17T03:21:31.791Z,71.06
2023-03-17T03:23:58.599Z,71.21
2023-03-17T03:26:25.800Z,71.30
2023-03-17T03:28:52.536Z,71.63
2023-03-17T03:31:19.759Z,71.29
2023-03-17T03:33:46.631Z,71.79
2023-03-17T03:36:13.517Z,71.67
2023-03-17T03:38:41.700Z,71.60
2023-03-17T03:41:09.092Z,71.68
2023-03-17T03:43:36.922Z,71.81
2023-03-17T03:46:04.886Z,71.86
2023-03-17T03:48:31.778Z,71.92
2023-03-17T03:51:00.506Z,71.70
2023-03-17T03:53:28.440Z,71.73
2023-03-17T03:55:56.063Z,71.60
2023-03-17T03:58:23.059Z,71.71
2023-03-17T04:00:50.041Z,71.49
2023-03-17T04:03:17.115Z,71.47
2023-03-17T04:05:44.210Z,71.37
2023-03-17T04:08:11.451Z,71.44
2023-03-17T04:10:38.212Z,71.08
2023-03-17T04:13:05.068Z,71.68
2023-03-17T04:15:31.779Z,71.46
2023-03-17T04:17:58.548Z,71.56
2023-03-17T04:20:25.555Z,71.65
2023-03-17T04:22:52.485Z,71.71
2023-03-17T04:25:19.414Z,71.38
2023-03-17T04:27:46.349Z,71.82
2023-03-17T04:30:14.569Z,71.61
2023-03-17T04:32:41.816Z,71.82
2023-03-17T04:35:14.192Z,71.65
2023-03-17T04:37:41.668Z,71.83
2023-03-17T04:40:10.936Z,71.66
2023-03-17T04:42:38.394Z,71.90
2023-03-17T04:45:07.103Z,71.96
2023-03-17T04:47:33.829Z,71.97
2023-03-17T04:50:00.619Z,72.23
2023-03-17T04:52:28.451Z,72.07
2023-03-17T04:54:55.203Z,72.08
2023-03-17T04:57:22.457Z,72.30
2023-03-17T04:59:49.187Z,72.42
2023-03-17T05:02:15.918Z,72.18
2023-03-17T05:04:43.436Z,72.31
2023-03-17T05:07:10.282Z,72.43
2023-03-17T05:09:37.164Z,72.35
2023-03-17T05:12:04.276Z,72.04
2023-03-17T05:14:31.288Z,72.26
2023-03-17T05:16:57.968Z,72.40
2023-03-17T05:19:24.692Z,72.36
2023-03-17T05:21:51.613Z,72.27
2023-03-17T05:24:18.345Z,72.35
2023-03-17T05:26:45.566Z,72.52
2023-03-17T05:29:12.286Z,72.70
2023-03-17T05:31:39.108Z,72.53
2023-03-17T05:34:05.955Z,72.76
2023-03-17T05:36:33.602Z,72.53
2023-03-17T05:39:00.641Z,72.50
2023-03-17T05:41:28.203Z,72.88
2023-03-17T05:43:54.992Z,72.86
2023-03-17T05:46:22.536Z,72.48
2023-03-17T05:48:49.298Z,72.56
2023-03-17T05:51:16.073Z,72.59
2023-03-17T05:53:43.517Z,72.22
2023-03-17T05:56:10.199Z,72.30
2023-03-17T05:58:36.944Z,72.27
2023-03-17T06:01:03.784Z,72.09
2023-03-17T06:03:30.660Z,71.93
2023-03-17T06:05:57.479Z,72.00
2023-03-17T06:08:24.609Z,72.15
2023-03-17T06:10:51.548Z,72.26
2023-03-17T06:13:18.265Z,72.05
2023-03-17T06:15:46.754Z,72.00
2023-03-17T06:18:13.551Z,71.66
2023-03-17T06:20:40.297Z,71.75
2023-03-17T06:23:07.014Z,71.39
2023-03-17T06:25:35.141Z,71.30
2023-03-17T06:28:04.009Z,71.02
2023-03-17T06:30:35.320Z,70.91
2023-03-17T06:33:03.261Z,70.44
2023-03-17T06:35:33.526Z,70.50
2023-03-17T06:38:01.097Z,70.18
2023-03-17T06:40:29.040Z,69.88
2023-03-17T06:42:55.754Z,69.90
2023-03-17T06:45:22.421Z,69.56
2023-03-17T06:47:49.396Z,69.41
2023-03-17T06:50:16.293Z,69.38
2023-03-17T06:52:44.051Z,69.20
2023-03-17T06:55:12.333Z,69.36
2023-03-17T06:57:39.297Z,69.25
2023-03-17T07:00:06.980Z,68.87
2023-03-17T07:02:34.774Z,68.71
2023-03-17T07:05:01.878Z,68.35
2023-03-17T07:07:28.685Z,68.08
2023-03-17T07:09:55.533Z,67.85
2023-03-17T07:12:22.312Z,67.46
2023-03-17T07:14:49.094Z,67.01
2023-03-17T07:17:16.018Z,66.56
2023-03-17T07:19:42.913Z,66.28
2023-03-17T07:22:11.943Z,65.71
2023-03-17T07:24:38.992Z,65.64
2023-03-17T07:27:06.282Z,65.07
2023-03-17T07:29:34.108Z,64.97
2023-03-17T07:32:02.409Z,64.58
2023-03-17T07:34:29.157Z,64.59
2023-03-17T07:36:56.112Z,64.48
2023-03-17T07:39:22.881Z,64.02
2023-03-17T07:41:55.380Z,64.06
2023-03-17T07:44:23.622Z,64.06
2023-03-17T07:46:51.601Z,63.90
2023-03-17T07:49:25.155Z,63.67
2023-03-17T07:52:00.967Z,63.61
2023-03-17T07:54:29.251Z,63.09
2023-03-17T07:56:57.094Z,63.00
2023-03-17T07:59:24.028Z,62.43
2023-03-17T08:01:50.833Z,62.17
2023-03-17T08:04:17.693Z,61.97
2023-03-17T08:06:46.531Z,61.36
2023-03-17T08:09:13.472Z,61.04
2023-03-17T08:11:40.431Z,60.72
2023-03-17T08:14:07.225Z,60.52
2023-03-17T08:16:34.029Z,60.22
2023-03-17T08:19:01.052Z,59.62
2023-03-17T08:21:28.558Z,59.14
2023-03-17T08:23:55.386Z,58.42
2023-03-17T08:26:23.265Z,57.69
2023-03-17T08:28:50.406Z,56.76
2023-03-17T08:31:20.287Z,56.62
2023-03-17T08:33:53.434Z,55.81
2023-03-17T08:36:21.504Z,55.34
2023-03-17T08:38:48.535Z,55.35
2023-03-17T08:41:22.897Z,54.35
2023-03-17T08:43:50.856Z,54.54
2023-03-17T08:46:29.994Z,52.71
2023-03-17T08:48:58.926Z,53.55
2023-03-17T08:51:28.543Z,53.10
2023-03-17T08:53:56.069Z,52.41
2023-03-17T08:56:23.023Z,51.71
2023-03-17T08:58:51.002Z,51.63
2023-03-17T09:01:20.956Z,51.92
2023-03-17T09:03:48.529Z,51.62
2023-03-17T09:06:15.756Z,51.32
2023-03-17T09:08:52.954Z,51.08
2023-03-17T09:11:20.674Z,49.10
2023-03-17T09:13:47.858Z,50.47
2023-03-17T09:16:16.376Z,49.78
2023-03-17T09:18:43.804Z,49.37
2023-03-17T09:21:12.105Z,49.13
2023-03-17T09:23:39.210Z,49.11
2023-03-17T09:26:06.207Z,48.73
2023-03-17T09:28:36.132Z,48.75
2023-03-17T09:31:06.344Z,48.49
2023-03-17T09:33:33.098Z,48.37
2023-03-17T09:35:59.790Z,47.76
2023-03-17T09:38:27.776Z,47.91
2023-03-17T09:41:20.677Z,46.52
2023-03-17T09:44:34.747Z,45.86
2023-03-17T09:47:04.371Z,46.67
2023-03-17T09:49:44.845Z,46.10
2023-03-17T09:52:18.750Z,45.06
2023-03-17T09:54:46.776Z,45.80
2023-03-17T09:57:18.209Z,45.94
2023-03-17T09:59:48.177Z,45.94
2023-03-17T10:02:24.904Z,45.04
2023-03-17T10:04:51.902Z,45.25
2023-03-17T10:07:26.088Z,44.80
2023-03-17T10:10:05.805Z,44.39
2023-03-17T10:12:35.444Z,44.86
2023-03-17T10:15:15.644Z,44.44
2023-03-17T10:17:42.837Z,44.27
2023-03-17T10:20:17.361Z,43.57
2023-03-17T10:22:52.934Z,43.24
2023-03-17T10:25:22.861Z,43.49
2023-03-17T10:28:03.637Z,43.04
2023-03-17T10:30:33.879Z,43.32
2023-03-17T10:33:03.474Z,43.00
2023-03-17T10:35:36.166Z,42.98
2023-03-17T10:38:19.860Z,41.88
2023-03-17T10:41:13.557Z,41.69
2023-03-17T10:43:53.695Z,41.85
2023-03-17T10:46:26.100Z,42.12
2023-03-17T10:49:18.124Z,41.82
2023-03-17T10:51:46.719Z,42.26
2023-03-17T10:54:18.917Z,41.76
2023-03-17T10:56:57.782Z,41.61
2023-03-17T10:59:33.207Z,40.85
2023-03-17T11:02:02.268Z,41.29
2023-03-17T11:04:32.041Z,41.03
2023-03-17T11:07:00.938Z,40.73
2023-03-17T11:09:34.143Z,40.72
2023-03-17T11:12:07.072Z,40.23
2023-03-17T11:14:34.064Z,40.59
2023-03-17T11:17:16.688Z,40.01
2023-03-17T11:20:07.270Z,40.10
2023-03-17T11:22:40.841Z,39.55
2023-03-17T11:25:19.492Z,38.85
2023-03-17T11:27:56.818Z,38.89
2023-03-17T11:30:36.949Z,38.83
2023-03-17T11:33:28.398Z,39.50
2023-03-17T11:36:09.743Z,39.09
2023-03-17T11:38:44.666Z,39.17
2023-03-17T11:41:26.218Z,38.74
2023-03-17T11:44:05.781Z,38.51
2023-03-17T11:47:17.221Z,37.99
2023-03-17T11:49:47.217Z,38.84
2023-03-17T11:52:17.389Z,38.65
2023-03-17T11:55:31.258Z,37.59
2023-03-17T11:58:03.367Z,37.92
2023-03-17T12:00:36.702Z,36.77
2023-03-17T12:03:15.848Z,36.92
2023-03-17T12:05:46.917Z,37.24
2023-03-17T12:08:42.374Z,36.90
2023-03-17T12:11:12.105Z,36.67
2023-03-17T12:13:46.961Z,37.18
2023-03-17T12:16:22.745Z,36.73
2023-03-17T12:19:12.820Z,36.34
2023-03-17T12:21:50.431Z,36.03
2023-03-17T12:24:40.046Z,36.13
2023-03-17T12:27:17.907Z,35.82
2023-03-17T12:29:49.955Z,36.19
2023-03-17T12:32:24.385Z,35.77
2023-03-17T12:34:57.247Z,35.58
2023-03-17T12:37:27.758Z,35.38
2023-03-17T12:40:09.898Z,35.10
2023-03-17T12:43:05.571Z,34.81
2023-03-17T12:45:46.339Z,34.80
2023-03-17T12:48:27.345Z,34.83
2023-03-17T12:51:28.760Z,34.22
2023-03-17T12:53:56.110Z,34.73
2023-03-17T12:56:26.173Z,34.50
2023-03-17T12:58:58.701Z,34.54
2023-03-17T13:01:40.392Z,33.03
2023-03-17T13:04:13.016Z,33.60
2023-03-17T13:06:45.360Z,33.62
2023-03-17T13:09:37.393Z,32.99
2023-03-17T13:12:07.140Z,33.28
2023-03-17T13:14:45.010Z,32.72
2023-03-17T13:17:11.735Z,32.76
2023-03-17T13:19:54.908Z,31.94
2023-03-17T13:22:21.603Z,32.55
2023-03-17T13:24:51.452Z,32.58
2023-03-17T13:27:24.383Z,31.78
2023-03-17T13:29:51.436Z,31.99
2023-03-17T13:32:27.685Z,31.83
2023-03-17T13:35:16.708Z,31.30
2023-03-17T13:38:14.527Z,31.65
2023-03-17T13:41:08.396Z,31.78
2023-03-17T13:43:49.164Z,32.07
2023-03-17T13:46:21.340Z,32.08
2023-03-17T13:48:49.440Z,31.96
2023-03-17T13:51:52.704Z,31.92
2023-03-17T13:54:28.797Z,31.89
2023-03-17T13:56:59.405Z,31.88
2023-03-17T13:59:35.024Z,31.42
2023-03-17T14:02:14.064Z,32.03
2023-03-17T14:04:52.799Z,31.48
2023-03-17T14:07:23.914Z,32.11
2023-03-17T14:09:59.486Z,31.67
2023-03-17T14:12:51.300Z,31.81
2023-03-17T14:15:27.235Z,32.01
2023-03-17T14:17:59.376Z,31.68
2023-03-17T14:20:27.765Z,32.26
2023-03-17T14:22:57.452Z,32.08
2023-03-17T14:25:26.533Z,32.13
2023-03-17T14:27:57.064Z,32.20
2023-03-17T14:30:26.205Z,31.80
2023-03-17T14:33:04.572Z,31.97
2023-03-17T14:35:33.791Z,32.02
2023-03-17T14:38:02.088Z,32.02
2023-03-17T14:40:32.486Z,31.84
2023-03-17T14:42:59.252Z,32.01
2023-03-17T14:45:43.134Z,31.59
2023-03-17T14:48:14.946Z,31.91
2023-03-17T14:50:51.578Z,32.00
